Emden, Illinois
Current Conditions -  °F | °C
As of 10:55 AM on Friday 24 Oct 2014 (Local Time) from KAAA Reporting Station
Haze Haze  
Wind Chill: 61°   Ceiling: Unl
Heat Index: 61°   Visibility: 5mi
Dew Point: 55°   Wind: 0mph
Humidity: 81%   Direction: NA
Pressure: 30.08"   Gusts: NA
Location:  40.3°N, 89.49°W
Report Text: KAAA 241555Z AUTO 00000KT 5SM HZ SCT006 16/13 A3008 RMK AO2 T01590126
Loading
Personal Weather Stations






























Interactive Weather Map
Tropical Storm Tracking
New forecast layout! Learn more

10-Day Weather Forecast

Advertisements
Track Severe Weather on mobile